Time;durP1;ratioP1;P1;durP2;ratioP2;P2;SDS_P1;SDS_P2;PMS_P1;PMS_P2;Temp;Humidity;BMP_temperature;BMP_pressure;BME280_temperature;BME280_humidity;BME280_pressure;Samples;Min_cycle;Max_cycle;Signal;HPM_P1;HPM_P2
2021/06/01 00:00:48;;;;;;;4.53;2.33;;;15.60;99.90;;;-143.32;49.73;55216.63;6150593;23;20399;-94
2021/06/01 00:03:22;;;;;;;3.50;2.33;;;15.60;99.90;;;-143.32;50.25;55208.53;6149421;23;20418;-93
2021/06/01 00:05:52;;;;;;;4.27;1.97;;;15.60;99.90;;;-143.32;51.00;55222.69;6121354;23;20408;-93
2021/06/01 00:08:22;;;;;;;4.27;2.50;;;15.50;99.90;;;-143.32;51.40;55188.31;6147164;23;20393;-92
2021/06/01 00:10:49;;;;;;;4.20;2.47;;;15.50;1.00;;;-143.32;51.94;55214.59;6144849;23;20432;-94
2021/06/01 00:13:19;;;;;;;7.40;2.60;;;15.40;1.00;;;-143.32;52.14;55176.19;6142090;23;20486;-92
2021/06/01 00:15:46;;;;;;;5.77;2.10;;;15.50;1.00;;;-143.32;52.83;55190.34;6143609;23;20502;-93
2021/06/01 00:18:14;;;;;;;7.20;2.53;;;15.40;1.00;;;-143.32;52.73;55232.78;6144201;23;20412;-93
2021/06/01 00:20:42;;;;;;;5.30;2.53;;;15.30;1.00;;;-143.32;53.64;55216.63;6145178;23;20415;-93
2021/06/01 00:23:09;;;;;;;7.30;2.37;;;15.20;1.00;;;-143.32;54.15;55216.63;6145550;23;20454;-93
2021/06/01 00:25:36;;;;;;;4.60;2.27;;;15.20;1.00;;;-143.32;54.41;55208.53;6144441;23;20429;-94
2021/06/01 00:28:04;;;;;;;8.00;2.47;;;15.20;1.00;;;-143.32;55.42;55220.66;6144080;23;20415;-92
2021/06/01 00:30:32;;;;;;;4.73;2.40;;;15.10;1.00;;;-143.32;55.21;55188.31;6144647;23;20411;-92
2021/06/01 00:33:01;;;;;;;6.53;2.80;;;15.10;1.00;;;-143.32;55.92;55212.56;6145997;23;20434;-92
2021/06/01 00:35:28;;;;;;;6.83;2.60;;;15.00;1.00;;;-143.32;56.15;55194.38;6146500;23;20460;-93
2021/06/01 00:38:07;;;;;;;4.50;2.93;;;15.00;1.00;;;-143.32;56.16;55186.31;6147211;23;20400;-92
2021/06/01 00:40:37;;;;;;;4.37;2.47;;;15.00;1.00;;;-143.32;56.54;55174.19;6149582;23;20404;-92
2021/06/01 00:43:05;;;;;;;5.10;2.60;;;15.00;1.00;;;-143.32;57.02;55164.06;6146770;23;20491;-91
2021/06/01 00:45:32;;;;;;;5.67;2.50;;;14.90;6.50;;;-143.32;57.09;55164.06;6148312;23;20491;-93
2021/06/01 00:48:01;;;;;;;6.40;2.50;;;14.90;21.80;;;-143.32;57.25;55194.38;6146144;23;20887;-92
2021/06/01 00:50:41;;;;;;;3.10;2.60;;;14.90;58.60;;;-143.32;57.59;55200.44;6149124;23;20495;-94
2021/06/01 00:57:00;;;;;;;6.37;2.53;;;14.90;99.90;;;-143.32;58.81;55182.25;6063089;23;20434;-92
2021/06/01 00:59:30;;;;;;;3.00;2.20;;;14.80;99.90;;;-143.32;58.47;55198.44;6104785;23;20448;-93
2021/06/01 01:02:05;;;;;;;3.60;2.70;;;14.80;99.90;;;-143.32;58.47;55192.38;6124914;23;20392;-91
2021/06/01 01:04:56;;;;;;;4.47;2.50;;;14.80;99.90;;;-143.32;58.89;55178.22;6151051;23;20400;-94
2021/06/01 01:07:38;;;;;;;4.77;2.43;;;14.80;99.90;;;-143.32;59.83;55180.25;6151728;23;20384;-93
2021/06/01 01:10:11;;;;;;;2.40;2.20;;;14.70;99.90;;;-143.32;59.27;55176.19;6126941;23;20414;-93
2021/06/01 01:12:54;;;;;;;4.67;2.63;;;14.70;99.90;;;-143.32;59.59;55178.22;6121995;23;20412;-94
2021/06/01 01:18:09;;;;;;;3.00;2.37;;;14.70;99.90;;;-143.32;60.37;55172.16;6147213;23;20431;-93
2021/06/01 01:20:58;;;;;;;4.43;2.33;;;14.60;99.90;;;-143.32;60.80;55172.16;6150342;23;20495;-93
2021/06/01 01:23:36;;;;;;;4.27;2.70;;;14.60;99.90;;;-143.32;60.55;55156.00;6122474;23;20427;-93
2021/06/01 01:26:15;;;;;;;4.93;2.60;;;14.60;99.90;;;-143.32;61.30;55158.00;6147796;23;20422;-93
2021/06/01 01:29:15;;;;;;;6.43;2.50;;;14.60;99.90;;;-143.32;61.50;55180.25;6123467;23;20476;-92
2021/06/01 01:31:49;;;;;;;3.70;2.37;;;14.50;99.90;;;-143.32;61.17;55194.38;6126165;23;20412;-94
2021/06/01 01:38:07;;;;;;;3.90;2.60;;;14.50;99.90;;;-143.32;61.18;55156.00;6149662;23;20383;-93
2021/06/01 01:40:38;;;;;;;7.17;2.63;;;14.70;99.90;;;-143.32;61.46;55178.22;6119729;23;20404;-92
2021/06/01 01:43:10;;;;;;;4.10;2.40;;;14.50;99.90;;;-143.32;62.13;55182.25;6141187;23;20424;-93
2021/06/01 01:45:40;;;;;;;5.00;2.70;;;14.50;1.00;;;-143.32;62.17;55210.56;6143550;23;20404;-93
2021/06/01 01:51:12;;;;;;;4.47;2.60;;;14.40;1.00;;;-143.32;63.21;55149.94;6145082;23;20438;-93
2021/06/01 01:53:48;;;;;;;3.40;2.50;;;14.30;1.00;;;-143.32;63.92;55192.38;6145706;23;20404;-92
2021/06/01 01:56:17;;;;;;;6.83;2.60;;;14.20;1.00;;;-143.32;63.70;55158.00;6143262;23;20455;-91
2021/06/01 01:58:54;;;;;;;5.10;2.73;;;14.30;1.00;;;-143.32;63.88;55176.19;6143780;23;20940;-91
2021/06/01 02:01:24;;;;;;;4.27;2.50;;;14.20;1.00;;;-143.32;65.29;55176.19;6146152;23;20416;-92
2021/06/01 02:03:54;;;;;;;7.27;2.80;;;14.20;1.00;;;-143.32;66.50;55145.88;6145753;23;20827;-93
2021/06/01 02:06:24;;;;;;;3.30;2.57;;;14.10;26.30;;;-143.32;67.71;55143.88;6144811;23;20400;-92
2021/06/01 02:08:55;;;;;;;4.63;2.43;;;14.00;99.90;;;-143.32;67.23;55156.00;6143915;23;20373;-92
2021/06/01 02:11:26;;;;;;;5.33;3.20;;;14.00;97.30;;;-143.32;66.89;55188.31;6144918;23;20479;-94
2021/06/01 02:13:58;;;;;;;8.70;6.80;;;14.00;97.70;;;-143.32;69.26;55129.72;6143338;23;20769;-92
2021/06/01 02:16:26;;;;;;;8.13;2.90;;;13.90;99.90;;;-143.32;68.57;55149.94;6144225;23;20518;-92
2021/06/01 02:18:55;;;;;;;5.10;2.90;;;13.80;99.90;;;-143.32;69.09;55184.28;6143013;23;20403;-94
2021/06/01 02:21:34;;;;;;;10.07;3.43;;;13.80;99.90;;;-143.32;69.52;55153.97;6142504;23;20420;-93
2021/06/01 02:24:09;;;;;;;8.20;2.83;;;13.70;99.90;;;-143.32;70.50;55135.78;6143337;23;20415;-94
2021/06/01 02:26:49;;;;;;;3.93;2.93;;;13.70;99.90;;;-143.32;70.28;55143.88;6147571;23;20382;-92
2021/06/01 02:29:33;;;;;;;6.53;3.10;;;13.60;99.90;;;-143.32;71.48;55176.19;6121907;23;20392;-93
2021/06/01 02:32:11;;;;;;;4.07;2.07;;;13.50;99.90;;;-143.32;72.53;55160.03;6122537;23;20412;-94
2021/06/01 02:34:41;;;;;;;4.40;2.73;;;13.40;1.00;;;-143.32;73.18;55143.88;6147272;23;20408;-92
2021/06/01 02:37:08;;;;;;;4.23;3.00;;;13.30;1.00;;;-143.32;73.29;55162.06;6130519;23;20416;-92
2021/06/01 02:39:38;;;;;;;3.80;2.33;;;13.30;1.00;;;-143.32;74.15;55164.06;6127466;23;20878;-88
2021/06/01 02:42:07;;;;;;;6.93;3.43;;;13.20;1.00;;;-143.32;75.82;55168.13;6126620;23;20424;-90
2021/06/01 02:44:36;;;;;;;5.57;2.93;;;13.10;1.00;;;-143.32;75.93;55141.84;6127693;23;20397;-88
2021/06/01 02:47:06;;;;;;;5.20;3.53;;;13.10;1.00;;;-143.32;76.66;55143.88;6127083;23;20910;-89
2021/06/01 02:49:34;;;;;;;3.87;3.10;;;13.00;1.00;;;-143.32;77.09;55168.13;6126521;23;20432;-90
2021/06/01 02:52:02;;;;;;;3.73;2.80;;;12.90;16.00;;;-143.32;74.99;55137.81;6126649;23;20450;-90
2021/06/01 02:54:29;;;;;;;6.80;2.87;;;12.90;1.00;;;-143.32;77.25;55121.63;6126598;23;20443;-89
2021/06/01 02:56:57;;;;;;;7.60;3.33;;;12.90;38.60;;;-143.32;78.10;55129.72;6126881;23;20534;-89
2021/06/01 02:59:29;;;;;;;6.57;3.23;;;12.80;94.50;;;-143.32;78.61;55107.50;6126928;23;20732;-89
2021/06/01 03:01:57;;;;;;;4.80;3.17;;;12.80;99.90;;;-143.32;79.36;55145.88;6126998;23;20389;-90
2021/06/01 03:04:23;;;;;;;4.57;2.83;;;12.70;99.90;;;-143.32;80.02;55133.75;6126648;23;20435;-91
2021/06/01 03:06:50;;;;;;;7.57;3.40;;;12.60;99.90;;;-143.32;80.55;55121.63;6126422;23;20412;-90
2021/06/01 03:09:17;;;;;;;5.17;3.30;;;12.60;99.90;;;-143.32;81.14;55111.53;6126889;23;20408;-89
2021/06/01 03:11:46;;;;;;;6.97;3.57;;;12.60;99.90;;;-143.32;82.29;55093.34;6126861;23;20412;-88
2021/06/01 03:14:14;;;;;;;5.47;3.10;;;12.50;99.90;;;-143.32;82.85;55123.66;6126866;23;20416;-89
2021/06/01 03:16:41;;;;;;;4.00;3.00;;;12.40;99.90;;;-143.32;83.42;55113.56;6127334;23;20448;-90
2021/06/01 03:19:08;;;;;;;5.30;3.23;;;12.40;99.90;;;-143.32;82.43;55103.44;6126045;23;20420;-89
2021/06/01 03:21:36;;;;;;;13.80;3.43;;;12.40;99.90;;;-143.32;83.81;55127.69;6126413;23;20444;-89
2021/06/01 03:24:03;;;;;;;8.93;3.60;;;12.40;99.90;;;-143.32;83.47;55069.09;6126395;23;20412;-88
2021/06/01 03:26:29;;;;;;;4.17;3.40;;;12.30;99.90;;;-143.32;83.03;55119.63;6126883;23;20721;-88
2021/06/01 03:28:56;;;;;;;9.90;3.47;;;12.30;99.90;;;-143.32;84.38;55119.63;6126571;23;20407;-88
2021/06/01 03:31:26;;;;;;;6.57;3.63;;;12.30;99.90;;;-143.32;83.86;55117.59;6126382;23;20459;-89
2021/06/01 03:33:55;;;;;;;6.60;3.10;;;12.20;99.90;;;-143.32;82.36;55125.69;6126952;23;20891;-91
2021/06/01 03:36:23;;;;;;;14.70;3.70;;;12.30;99.90;;;-143.32;83.13;55119.63;6126690;23;20500;-89
2021/06/01 03:38:51;;;;;;;5.80;3.43;;;12.30;99.90;;;-143.32;81.16;55153.97;6126750;23;20415;-89
2021/06/01 03:41:21;;;;;;;6.23;3.40;;;12.30;99.90;;;-143.32;80.33;55115.56;6126388;23;20412;-89
2021/06/01 03:43:48;;;;;;;5.03;3.67;;;12.40;99.90;;;-143.32;80.42;55121.63;6126556;23;20494;-89
2021/06/01 03:46:25;;;;;;;6.33;2.93;;;12.40;99.90;;;-143.32;79.24;55123.66;6126658;23;20411;-89
2021/06/01 03:48:52;;;;;;;11.43;5.00;;;12.50;96.60;;;-143.32;78.59;55141.84;6126010;23;20493;-89
2021/06/01 03:51:19;;;;;;;4.53;3.10;;;12.60;55.90;;;-143.32;78.58;55135.78;6126959;23;20494;-88
2021/06/01 03:53:47;;;;;;;9.83;3.77;;;12.60;66.80;;;-143.32;78.99;55153.97;6128532;23;20407;-88
2021/06/01 03:56:14;;;;;;;9.73;3.63;;;12.70;81.70;;;-143.32;82.26;55101.44;6129281;23;20448;-90
2021/06/01 03:58:41;;;;;;;8.23;4.40;;;12.60;99.90;;;-143.32;82.96;55103.44;6128394;23;20408;-87
2021/06/01 04:01:08;;;;;;;7.87;4.20;;;12.60;99.90;;;-143.32;84.26;55099.41;6127965;23;20918;-87
2021/06/01 04:03:40;;;;;;;6.13;4.00;;;12.50;99.90;;;-143.32;84.75;55071.13;6128251;23;20415;-88
2021/06/01 04:06:07;;;;;;;9.03;3.53;;;12.40;99.90;;;-143.32;82.13;55129.72;6128065;23;20483;-90
2021/06/01 04:08:37;;;;;;;12.80;4.10;;;12.40;99.90;;;-143.32;82.81;55111.53;6136500;23;20412;-93
2021/06/01 04:11:08;;;;;;;9.00;4.40;;;12.40;99.90;;;-143.32;81.24;55117.59;6151967;23;20416;-92
2021/06/01 04:13:37;;;;;;;5.70;3.67;;;12.50;99.90;;;-143.32;80.15;55158.00;6150196;23;20392;-93
2021/06/01 04:25:17;;;;;;;6.73;4.17;;;12.80;99.90;;;-143.32;80.64;55056.97;6172292;23;20466;-93
2021/06/01 04:27:47;;;;;;;13.17;4.33;;;12.80;99.90;;;-143.32;81.64;55101.44;6179846;23;20394;-92
2021/06/01 04:30:36;;;;;;;6.50;3.47;;;12.90;99.90;;;-143.32;81.46;55095.38;6179729;23;20396;-93
2021/06/01 04:33:03;;;;;;;5.13;3.60;;;12.90;99.90;;;-143.32;80.55;55083.25;6178779;23;20403;-93
2021/06/01 04:35:38;;;;;;;8.40;4.03;;;12.90;99.90;;;-143.32;80.98;55079.19;6177545;23;20420;-93
2021/06/01 04:38:06;;;;;;;4.27;3.50;;;12.90;99.90;;;-143.32;78.65;55101.44;6177900;23;20418;-93
2021/06/01 04:43:59;;;;;;;8.73;4.30;;;13.20;97.30;;;-143.32;79.68;55113.56;6119033;23;20435;-93
2021/06/01 06:26:07;;;;;;;7.93;3.60;;;20.30;99.90;;;-143.32;41.25;54962.00;6124280;23;20736;-87
2021/06/01 06:28:37;;;;;;;10.27;3.50;;;20.30;99.90;;;-143.32;41.31;54966.03;6126862;23;20407;-88
2021/06/01 06:31:04;;;;;;;10.70;3.53;;;20.40;99.90;;;-143.32;41.37;54941.78;6126383;23;20399;-88
2021/06/01 06:33:31;;;;;;;13.50;3.40;;;20.40;99.90;;;-143.32;42.23;54903.41;6126238;23;20416;-88
2021/06/01 06:35:57;;;;;;;6.23;3.13;;;20.40;99.90;;;-143.32;40.22;54923.59;6126628;23;20435;-88
2021/06/01 06:38:25;;;;;;;9.23;4.10;;;20.70;99.90;;;-143.32;40.56;54913.50;6126478;23;20408;-87
2021/06/01 06:48:46;;;;;;;4.50;3.60;;;21.00;99.90;;;-143.32;39.49;54905.44;6124033;23;20733;-87
2021/06/01 06:51:17;;;;;;;6.10;4.03;;;21.20;99.90;;;-143.32;38.76;54889.25;6126755;23;20414;-90
2021/06/01 06:53:51;;;;;;;4.87;3.37;;;21.30;99.90;;;-143.32;38.85;54915.53;6126492;23;20431;-90
2021/06/01 06:56:19;;;;;;;5.30;3.80;;;21.20;99.90;;;-143.32;38.93;54879.16;6126576;23;20431;-88
2021/06/01 06:58:46;;;;;;;6.13;3.23;;;21.40;99.90;;;-143.32;38.12;54863.00;6127690;23;20494;-92
2021/06/01 07:01:14;;;;;;;9.17;3.80;;;21.70;99.90;;;-143.32;38.51;54869.06;6131969;23;20403;-93
2021/06/01 07:04:04;;;;;;;8.00;3.53;;;21.70;99.90;;;-143.32;37.26;54856.94;6143194;23;20400;-93
2021/06/01 07:06:32;;;;;;;8.70;3.60;;;21.90;99.90;;;-143.32;37.17;54893.31;6124562;23;20523;-93
2021/06/01 07:12:42;;;;;;;7.10;3.37;;;22.00;99.90;;;-143.32;37.27;54854.91;6133535;23;20447;-93
2021/06/01 07:21:33;;;;;;;8.93;3.90;;;22.40;99.90;;;-143.32;35.91;54838.75;6106046;23;20436;-93
2021/06/01 07:24:12;;;;;;;5.97;3.30;;;22.50;99.90;;;-143.32;35.51;54842.78;6113507;23;20372;-93
2021/06/01 07:26:39;;;;;;;7.60;3.37;;;22.70;99.90;;;-143.32;35.17;54838.75;6114572;23;20412;-89
2021/06/01 07:29:06;;;;;;;8.57;3.60;;;23.00;99.90;;;-143.32;34.85;54852.88;6099096;23;20408;-87
2021/06/01 07:31:32;;;;;;;12.80;3.77;;;23.10;99.90;;;-143.32;35.34;54832.69;6098849;23;20404;-86
2021/06/01 07:33:59;;;;;;;13.07;3.77;;;23.00;99.90;;;-143.32;35.39;54879.16;6099036;23;20868;-87
2021/06/01 07:36:26;;;;;;;7.70;3.20;;;22.70;99.90;;;-143.32;36.28;54848.84;6098888;23;20452;-86
2021/06/01 07:41:30;;;;;;;12.73;3.83;;;22.80;99.90;;;-143.32;34.05;54867.03;6123962;23;20454;-90
2021/06/01 07:44:01;;;;;;;11.87;3.73;;;23.20;99.90;;;-143.32;34.27;54824.59;6128310;23;20435;-87
2021/06/01 07:46:28;;;;;;;11.27;4.03;;;23.20;99.90;;;-143.32;33.96;54816.53;6128187;23;20427;-89
2021/06/01 07:59:00;;;;;;;9.17;3.57;;;23.90;99.90;;;-143.32;32.26;54842.78;6065134;23;20494;-93
2021/06/01 08:01:31;;;;;;;4.80;3.30;;;24.30;99.90;;;-143.32;32.55;54824.59;6140633;23;20684;-93
2021/06/01 08:03:58;;;;;;;10.60;3.40;;;24.40;99.90;;;-143.32;32.21;54822.59;6142751;23;20423;-93
2021/06/01 08:06:30;;;;;;;7.20;3.33;;;24.60;99.90;;;-143.32;32.69;54820.56;6138599;23;20396;-95
2021/06/01 08:08:57;;;;;;;5.17;3.07;;;24.50;99.90;;;-143.32;31.62;54810.47;6141731;23;20388;-94
2021/06/01 08:11:24;;;;;;;6.10;3.80;;;24.70;99.90;;;-143.32;32.12;54863.00;6141645;23;20981;-93
2021/06/01 08:13:51;;;;;;;9.60;3.17;;;24.50;99.90;;;-143.32;31.56;54852.88;6129217;23;20415;-94
2021/06/01 08:16:19;;;;;;;5.07;2.70;;;24.30;99.90;;;-143.32;31.53;54875.13;6130478;23;20442;-93
2021/06/01 08:18:51;;;;;;;9.13;3.70;;;24.50;1.00;;;-143.32;32.21;54788.22;6128597;23;20434;-93
2021/06/01 08:21:25;;;;;;;12.33;3.20;;;24.50;99.90;;;-143.32;31.08;54828.66;6129255;23;20400;-94
2021/06/01 08:23:52;;;;;;;5.73;2.70;;;24.90;1.00;;;-143.32;30.09;54901.38;6128585;23;20469;-92
2021/06/01 08:26:19;;;;;;;19.07;2.73;;;24.80;1.00;;;-143.32;29.60;54925.63;6127918;23;20430;-94
2021/06/01 08:28:46;;;;;;;5.03;2.67;;;25.20;1.00;;;-143.32;29.78;54917.56;6129567;23;20507;-91
2021/06/01 08:31:26;;;;;;;4.60;2.57;;;25.20;1.00;;;-143.32;29.65;54939.78;6136502;23;20422;-94
2021/06/01 08:34:21;;;;;;;5.97;2.73;;;24.90;1.00;;;-143.32;29.80;54935.72;6140840;23;20387;-94
2021/06/01 08:36:54;;;;;;;9.37;3.20;;;25.10;1.00;;;-143.32;30.11;54848.84;6133942;23;20542;-94
2021/06/01 08:39:26;;;;;;;4.43;2.67;;;25.50;1.00;;;-143.32;29.60;54865.00;6132280;23;20411;-92
2021/06/01 08:41:53;;;;;;;10.10;3.50;;;25.60;1.00;;;-143.32;29.51;54949.88;6128897;23;20542;-93
2021/06/01 08:44:20;;;;;;;3.50;2.63;;;25.60;45.80;;;-143.32;29.63;54964.03;6142347;23;20415;-92
2021/06/01 08:46:50;;;;;;;9.77;3.10;;;25.30;99.90;;;-143.32;29.34;54937.75;6127774;23;20908;-94
2021/06/01 08:49:18;;;;;;;8.70;3.17;;;25.30;99.90;;;-143.32;28.37;54982.22;6127878;23;20415;-91
2021/06/01 08:51:50;;;;;;;8.20;2.40;;;25.60;99.90;;;-143.32;27.55;55000.41;6127358;23;20466;-92
2021/06/01 08:58:47;;;;;;;2.40;2.10;;;26.30;99.90;;;-143.32;27.59;54978.16;6144263;23;20834;-94
2021/06/01 09:13:03;;;;;;;7.53;2.60;;;26.70;99.90;;;-143.32;26.63;55061.00;6138139;23;20380;-94
2021/06/01 09:30:35;;;;;;;3.47;2.37;;;27.10;99.90;;;-143.32;26.38;55242.88;6078022;23;20455;-91
2021/06/01 09:33:02;;;;;;;2.47;2.17;;;27.00;99.90;;;-143.32;26.23;55325.75;6070639;23;20393;-94
2021/06/01 09:35:52;;;;;;;5.20;2.40;;;26.40;99.90;;;-143.32;26.27;55293.41;6071571;23;20433;-93
2021/06/01 09:38:23;;;;;;;6.37;2.00;;;26.30;99.90;;;-143.32;26.32;55309.56;6071999;23;20419;-94
2021/06/01 09:41:04;;;;;;;2.73;2.00;;;26.50;99.90;;;-143.32;27.05;55315.63;6070280;23;20841;-90
2021/06/01 09:43:32;;;;;;;10.60;2.30;;;26.00;99.90;;;-143.32;26.83;55347.97;6069916;23;20433;-94
2021/06/01 09:46:26;;;;;;;5.77;2.20;;;25.90;99.90;;;-143.32;27.37;55327.75;6070184;23;20425;-93
2021/06/01 09:48:55;;;;;;;3.50;2.33;;;25.70;99.90;;;-143.32;27.00;55307.56;6069020;23;20389;-91
2021/06/01 09:51:38;;;;;;;8.17;2.47;;;25.90;99.90;;;-143.32;26.93;55350.00;6068774;23;20402;-89
2021/06/01 09:54:33;;;;;;;6.70;2.50;;;25.90;99.90;;;-143.32;27.26;55341.91;6068656;23;20393;-87
2021/06/01 09:57:01;;;;;;;4.27;2.37;;;25.90;99.90;;;-143.32;27.43;55331.81;6070113;23;20467;-88
2021/06/01 09:59:30;;;;;;;2.93;2.47;;;25.90;99.90;;;-143.32;27.52;55345.94;6068954;23;20402;-89
2021/06/01 10:02:33;;;;;;;8.10;2.03;;;25.90;99.90;;;-143.32;27.98;55345.94;6069741;23;20443;-92
2021/06/01 10:05:12;;;;;;;8.40;2.53;;;25.50;99.90;;;-143.32;28.20;55327.75;6073731;23;20400;-90
2021/06/01 10:08:15;;;;;;;3.13;2.40;;;25.20;99.90;;;-143.32;28.00;55341.91;6071574;23;20405;-93
2021/06/01 10:10:50;;;;;;;4.67;2.70;;;25.20;99.90;;;-143.32;28.38;55313.63;6069070;23;20733;-91
2021/06/01 10:13:17;;;;;;;3.63;2.47;;;25.20;99.90;;;-143.32;28.23;55299.47;6068532;23;20817;-91
2021/06/01 10:19:26;;;;;;;10.47;2.90;;;25.30;99.90;;;-143.32;28.57;55356.06;6069440;23;20369;-90
2021/06/01 10:21:54;;;;;;;4.60;2.67;;;25.10;99.90;;;-143.32;28.90;55313.63;6069209;23;20401;-91
2021/06/01 10:28:08;;;;;;;4.33;2.93;;;24.20;99.90;;;-143.32;29.78;55311.59;6069052;23;20691;-91
2021/06/01 10:30:38;;;;;;;4.10;2.53;;;24.00;46.00;;;-143.32;29.83;55333.81;6068867;23;20469;-91
2021/06/01 10:33:55;;;;;;;5.27;2.90;;;23.90;1.00;;;-143.32;29.16;55382.31;6071059;23;20473;-91
2021/06/01 10:42:29;;;;;;;7.33;2.50;;;23.90;99.90;;;-143.32;29.32;55366.16;6071909;23;20452;-92
2021/06/01 10:42:36;;;;;;;6.30;2.77;;;24.00;99.90;;;-143.32;29.96;55321.69;6069127;23;20409;-90
2021/06/01 10:51:26;;;;;;;9.23;3.00;;;24.20;99.90;;;-143.32;29.23;55329.78;6070020;23;20385;-92
2021/06/01 11:21:57;;;;;;;6.10;2.67;;;24.00;1.00;;;-143.32;30.62;55358.06;6074555;23;20400;-93
2021/06/01 11:33:27;;;;;;;5.53;3.00;;;23.70;1.00;;;-143.32;30.25;55380.31;6074016;23;20390;-92
2021/06/01 11:52:59;;;;;;;6.47;3.27;;;24.10;99.90;;;-143.32;29.74;55382.31;6021001;23;20405;-94
2021/06/01 11:55:26;;;;;;;6.43;3.07;;;24.00;1.00;;;-143.32;30.04;55364.13;6074891;23;20444;-90
2021/06/01 12:03:58;;;;;;;2.93;2.50;;;24.00;1.00;;;-143.32;30.29;55360.09;6065012;23;20783;-91
2021/06/01 12:18:36;;;;;;;2.40;2.20;;;24.50;99.90;;;-143.32;30.45;55347.97;6070479;23;20474;-91
2021/06/01 12:21:04;;;;;;;2.60;2.40;;;24.50;1.00;;;-143.32;30.93;55327.75;6071911;23;20452;-92
2021/06/01 12:23:35;;;;;;;4.13;2.23;;;24.30;99.90;;;-143.32;30.76;55335.84;6070579;23;20444;-90
2021/06/01 12:26:12;;;;;;;4.93;2.67;;;24.20;99.90;;;-143.32;30.76;55329.78;6071183;23;20476;-93
2021/06/01 12:32:07;;;;;;;6.23;2.47;;;24.40;99.90;;;-143.32;30.89;55299.47;6069789;23;20493;-92
2021/06/01 12:34:49;;;;;;;3.77;2.60;;;24.50;99.90;;;-143.32;30.67;55331.81;6070097;23;20750;-91
2021/06/01 12:46:02;;;;;;;4.67;2.70;;;24.30;1.00;;;-143.32;29.79;55432.84;6071470;23;20473;-93
2021/06/01 13:12:14;;;;;;;5.13;2.93;;;24.20;99.90;;;-143.32;29.82;55386.38;6066922;23;20414;-92
2021/06/01 13:19:13;;;;;;;6.10;2.30;;;24.40;1.00;;;-143.32;29.59;55412.63;6069989;23;20433;-91
2021/06/01 13:20:33;;;;;;;3.40;2.20;;;24.40;1.00;;;-143.32;29.61;55396.47;6069437;23;20450;-93
2021/06/01 13:23:27;;;;;;;5.13;2.30;;;24.50;1.00;;;-143.32;30.04;55350.00;6070730;23;20413;-91
2021/06/01 13:37:23;;;;;;;8.13;2.60;;;24.30;27.40;;;-143.32;29.66;55376.25;6078028;23;20457;-93
2021/06/01 13:39:55;;;;;;;5.13;2.30;;;24.50;82.00;;;-143.32;29.41;55457.09;6050254;23;20452;-91
2021/06/01 13:48:02;;;;;;;4.40;2.50;;;24.50;1.00;;;-143.32;29.79;55412.63;6070680;23;20425;-91
2021/06/01 13:50:43;;;;;;;7.10;2.40;;;24.30;99.90;;;-143.32;29.46;55428.81;6070894;23;20433;-92
2021/06/01 13:56:00;;;;;;;2.20;2.00;;;24.60;99.90;;;-143.32;29.67;55418.69;6069889;23;20417;-92
2021/06/01 13:58:38;;;;;;;3.53;2.30;;;24.50;99.90;;;-143.32;29.61;55410.63;6070915;23;20428;-91
2021/06/01 14:01:11;;;;;;;4.37;2.30;;;24.50;99.90;;;-143.32;29.90;55394.44;6070118;23;20402;-92
2021/06/01 14:09:39;;;;;;;5.33;2.03;;;24.80;99.90;;;-143.32;29.87;55386.38;6070995;23;20382;-91
2021/06/01 14:31:51;;;;;;;4.90;2.60;;;24.90;99.90;;;-143.32;29.29;55434.88;6075038;23;20405;-93
2021/06/01 15:11:16;;;;;;;7.87;2.40;;;25.10;99.90;;;-143.32;29.49;55463.16;5981122;24;20432;-91
2021/06/01 15:49:27;;;;;;;16.93;2.17;;;24.40;99.90;;;-143.32;28.88;55527.84;6022884;23;20461;-89
2021/06/01 15:55:15;;;;;;;8.90;1.83;;;24.40;99.90;;;-143.32;28.74;55548.03;6039223;23;20405;-90
2021/06/01 16:30:33;;;;;;;5.00;1.93;;;24.90;99.90;;;-143.32;27.55;55655.16;6069922;23;20397;-88
2021/06/01 16:33:22;;;;;;;4.53;1.93;;;24.80;99.90;;;-143.32;27.06;55643.03;6069730;23;20440;-89
2021/06/01 16:41:52;;;;;;;3.93;1.90;;;24.60;99.90;;;-143.32;27.14;55673.34;6069176;23;20460;-87
2021/06/01 16:44:22;;;;;;;4.50;1.90;;;24.60;99.90;;;-143.32;27.53;55628.88;6069799;23;20405;-87
2021/06/01 17:03:56;;;;;;;3.73;1.80;;;23.90;99.90;;;-143.32;28.11;55628.88;5982504;24;20419;-87
2021/06/01 17:06:29;;;;;;;3.20;2.00;;;23.90;99.90;;;-143.32;28.44;55643.03;5982442;24;20417;-89
2021/06/01 17:10:57;;;;;;;8.10;2.73;;;24.00;99.90;;;-143.32;28.04;55634.94;5982751;24;20389;-90
2021/06/01 17:11:56;;;;;;;3.40;1.87;;;23.90;99.90;;;-143.32;28.13;55657.19;5981667;24;20445;-89
2021/06/01 17:14:27;;;;;;;8.70;2.20;;;23.90;99.90;;;-143.32;28.07;55663.25;6055396;23;20418;-88
2021/06/01 17:17:01;;;;;;;2.80;2.00;;;23.80;99.90;;;-143.32;28.21;55651.13;6069265;23;20437;-90
2021/06/01 17:22:40;;;;;;;10.63;1.87;;;23.70;99.90;;;-143.32;28.09;55663.25;6069485;23;20434;-89
2021/06/01 17:36:10;;;;;;;4.37;1.90;;;23.70;99.90;;;-143.32;28.79;55632.94;6069131;23;20380;-88
2021/06/01 17:38:38;;;;;;;1.80;1.70;;;23.70;99.90;;;-143.32;28.96;55624.84;6069487;23;20420;-89
2021/06/01 17:41:12;;;;;;;4.10;2.20;;;23.70;99.90;;;-143.32;29.10;55608.69;6069011;23;20421;-89
2021/06/01 17:43:42;;;;;;;2.80;2.53;;;23.70;99.90;;;-143.32;28.99;55586.44;6069226;23;20400;-89
2021/06/01 17:46:14;;;;;;;4.57;2.13;;;23.70;99.90;;;-143.32;28.67;55671.31;6070085;23;20394;-90
2021/06/01 17:48:50;;;;;;;3.57;1.80;;;23.70;99.90;;;-143.32;28.56;55663.25;6069447;23;20394;-91
2021/06/01 17:51:17;;;;;;;2.10;1.90;;;23.70;99.90;;;-143.32;28.47;55681.44;6069628;23;20398;-91
2021/06/01 17:53:51;;;;;;;6.00;2.00;;;23.60;99.90;;;-143.32;28.09;55665.25;6069076;23;20528;-91
2021/06/01 17:56:21;;;;;;;3.60;2.13;;;23.60;99.90;;;-143.32;27.71;55729.94;6069246;23;20397;-88
2021/06/01 17:58:48;;;;;;;3.00;2.00;;;23.50;99.90;;;-143.32;27.98;55681.44;6069217;23;20704;-87
2021/06/01 18:01:17;;;;;;;3.33;1.80;;;23.50;99.90;;;-143.32;27.89;55691.53;6069212;23;20410;-89
2021/06/01 18:03:50;;;;;;;3.83;1.90;;;23.50;99.90;;;-143.32;28.02;55697.59;6068878;23;20410;-87
2021/06/01 18:06:17;;;;;;;3.80;2.23;;;23.40;99.90;;;-143.32;27.94;55693.56;6069545;23;20402;-87
2021/06/01 18:08:54;;;;;;;9.43;2.20;;;23.40;99.90;;;-143.32;27.80;55709.72;6068859;23;20428;-88
2021/06/01 18:37:17;;;;;;;2.70;2.03;;;23.20;99.90;;;-143.32;27.47;55717.81;6068867;23;20533;-89
2021/06/01 18:51:39;;;;;;;2.17;2.00;;;22.90;99.90;;;-143.32;28.15;55736.00;6036177;23;20972;-90
2021/06/01 19:00:11;;;;;;;5.43;1.77;;;22.70;99.90;;;-143.32;28.91;55715.78;6071549;23;20401;-88
2021/06/01 19:25:46;;;;;;;7.43;2.30;;;22.00;99.90;;;-143.32;30.19;55699.63;6013687;23;20433;-90
2021/06/01 19:28:40;;;;;;;4.70;2.93;;;21.90;99.90;;;-143.32;30.50;55657.19;6072485;23;20394;-93
2021/06/01 19:51:21;;;;;;;2.63;2.20;;;21.50;1.00;;;-143.32;30.92;55649.09;6074040;23;20407;-90
2021/06/01 19:53:52;;;;;;;9.43;2.57;;;21.50;1.00;;;-143.32;31.13;55679.41;6072421;23;20726;-90
2021/06/01 19:56:20;;;;;;;3.60;1.93;;;21.40;1.00;;;-143.32;31.41;55663.25;6071057;23;20413;-90
2021/06/01 19:58:49;;;;;;;5.33;2.30;;;21.30;1.00;;;-143.32;31.54;55683.44;6071893;23;20402;-91
2021/06/01 20:01:16;;;;;;;3.20;2.17;;;21.20;1.00;;;-143.32;31.77;55671.31;6071262;23;20410;-90
2021/06/01 20:03:45;;;;;;;2.50;2.00;;;21.20;1.00;;;-143.32;31.85;55653.13;6070944;23;20421;-90
2021/06/01 20:06:12;;;;;;;4.40;2.60;;;21.10;1.00;;;-143.32;32.12;55663.25;6077959;23;20420;-90
2021/06/01 20:08:40;;;;;;;3.13;1.60;;;21.00;99.90;;;-143.32;32.02;55655.16;6074055;23;20406;-90
2021/06/01 20:11:09;;;;;;;3.87;2.50;;;21.00;99.90;;;-143.32;32.43;55632.94;6070700;23;20417;-91
2021/06/01 20:13:36;;;;;;;2.60;1.83;;;21.00;99.90;;;-143.32;32.56;55653.13;6070711;23;20414;-91
2021/06/01 20:16:04;;;;;;;2.20;2.00;;;21.00;99.90;;;-143.32;32.74;55643.03;6071169;23;20441;-90
2021/06/01 20:18:34;;;;;;;3.43;2.10;;;20.90;99.90;;;-143.32;32.84;55618.78;6071159;23;20541;-90
2021/06/01 20:21:03;;;;;;;5.23;2.50;;;20.90;99.90;;;-143.32;33.02;55645.06;6071120;23;20406;-90